sensor_id;sensor_type;location;lat;lon;timestamp;temperature;humidity
35127;DHT22;21300;52.006;5.798;2022-10-16T00:01:58;12.30;94.10
35127;DHT22;21300;52.006;5.798;2022-10-16T00:04:24;12.30;94.10
35127;DHT22;21300;52.006;5.798;2022-10-16T00:06:49;12.30;94.10
35127;DHT22;21300;52.006;5.798;2022-10-16T00:09:15;12.30;94.10
35127;DHT22;21300;52.006;5.798;2022-10-16T00:11:41;12.30;94.10
35127;DHT22;21300;52.006;5.798;2022-10-16T00:14:10;12.30;94.50
35127;DHT22;21300;52.006;5.798;2022-10-16T00:16:36;12.20;94.10
35127;DHT22;21300;52.006;5.798;2022-10-16T00:19:03;12.30;94.20
35127;DHT22;21300;52.006;5.798;2022-10-16T00:21:29;12.20;94.10
35127;DHT22;21300;52.006;5.798;2022-10-16T00:23:59;12.20;94.10
35127;DHT22;21300;52.006;5.798;2022-10-16T00:26:26;12.20;94.20
35127;DHT22;21300;52.006;5.798;2022-10-16T00:28:52;12.20;94.20
35127;DHT22;21300;52.006;5.798;2022-10-16T00:31:19;12.20;94.10
35127;DHT22;21300;52.006;5.798;2022-10-16T00:33:45;12.20;94.20
35127;DHT22;21300;52.006;5.798;2022-10-16T00:36:13;12.20;94.50
35127;DHT22;21300;52.006;5.798;2022-10-16T00:38:40;12.20;94.20
35127;DHT22;21300;52.006;5.798;2022-10-16T00:41:07;12.20;94.20
35127;DHT22;21300;52.006;5.798;2022-10-16T00:43:53;12.20;94.20
35127;DHT22;21300;52.006;5.798;2022-10-16T00:46:40;12.20;94.20
35127;DHT22;21300;52.006;5.798;2022-10-16T00:49:12;12.10;94.20
35127;DHT22;21300;52.006;5.798;2022-10-16T00:51:41;12.10;94.20
35127;DHT22;21300;52.006;5.798;2022-10-16T00:54:14;12.10;94.20
35127;DHT22;21300;52.006;5.798;2022-10-16T00:56:41;12.10;94.20
35127;DHT22;21300;52.006;5.798;2022-10-16T00:59:16;12.10;94.20
35127;DHT22;21300;52.006;5.798;2022-10-16T01:01:41;12.10;94.30
35127;DHT22;21300;52.006;5.798;2022-10-16T01:04:07;12.10;94.30
35127;DHT22;21300;52.006;5.798;2022-10-16T01:07:04;12.10;94.30
35127;DHT22;21300;52.006;5.798;2022-10-16T01:12:41;12.10;94.30
35127;DHT22;21300;52.006;5.798;2022-10-16T01:20:30;12.00;94.30
35127;DHT22;21300;52.006;5.798;2022-10-16T01:28:45;12.00;94.30
35127;DHT22;21300;52.006;5.798;2022-10-16T01:31:15;12.00;94.70
35127;DHT22;21300;52.006;5.798;2022-10-16T01:33:46;12.00;94.30
35127;DHT22;21300;52.006;5.798;2022-10-16T01:36:20;12.00;94.30
35127;DHT22;21300;52.006;5.798;2022-10-16T01:38:50;12.00;94.40
35127;DHT22;21300;52.006;5.798;2022-10-16T01:41:29;12.00;94.40
35127;DHT22;21300;52.006;5.798;2022-10-16T01:44:14;12.00;94.40
35127;DHT22;21300;52.006;5.798;2022-10-16T01:46:45;12.00;94.30
35127;DHT22;21300;52.006;5.798;2022-10-16T01:49:12;12.00;94.40
35127;DHT22;21300;52.006;5.798;2022-10-16T01:51:38;12.00;94.40
35127;DHT22;21300;52.006;5.798;2022-10-16T01:54:06;12.00;94.40
35127;DHT22;21300;52.006;5.798;2022-10-16T01:56:34;11.90;94.40
35127;DHT22;21300;52.006;5.798;2022-10-16T01:59:17;11.90;94.40
35127;DHT22;21300;52.006;5.798;2022-10-16T02:01:48;11.90;94.40
35127;DHT22;21300;52.006;5.798;2022-10-16T02:04:24;11.90;94.30
35127;DHT22;21300;52.006;5.798;2022-10-16T02:06:53;12.00;94.40
35127;DHT22;21300;52.006;5.798;2022-10-16T02:09:19;11.90;94.40
35127;DHT22;21300;52.006;5.798;2022-10-16T02:11:45;11.90;94.30
35127;DHT22;21300;52.006;5.798;2022-10-16T02:14:11;11.90;94.40
35127;DHT22;21300;52.006;5.798;2022-10-16T02:16:40;11.90;94.30
35127;DHT22;21300;52.006;5.798;2022-10-16T02:19:06;11.90;94.40
35127;DHT22;21300;52.006;5.798;2022-10-16T02:22:04;11.90;94.40
35127;DHT22;21300;52.006;5.798;2022-10-16T02:24:45;12.00;94.40
35127;DHT22;21300;52.006;5.798;2022-10-16T02:29:46;11.90;94.50
35127;DHT22;21300;52.006;5.798;2022-10-16T02:32:21;11.90;94.40
35127;DHT22;21300;52.006;5.798;2022-10-16T02:34:49;11.90;94.40
35127;DHT22;21300;52.006;5.798;2022-10-16T02:37:17;11.90;94.40
35127;DHT22;21300;52.006;5.798;2022-10-16T02:39:43;11.90;94.40
35127;DHT22;21300;52.006;5.798;2022-10-16T02:42:13;11.90;94.40
35127;DHT22;21300;52.006;5.798;2022-10-16T02:44:39;11.90;94.40
35127;DHT22;21300;52.006;5.798;2022-10-16T02:47:05;11.90;94.40
35127;DHT22;21300;52.006;5.798;2022-10-16T02:49:30;11.90;94.40
35127;DHT22;21300;52.006;5.798;2022-10-16T02:51:56;11.90;94.40
35127;DHT22;21300;52.006;5.798;2022-10-16T02:54:22;11.90;94.40
35127;DHT22;21300;52.006;5.798;2022-10-16T02:56:47;11.90;94.40
35127;DHT22;21300;52.006;5.798;2022-10-16T02:59:13;11.90;94.40
35127;DHT22;21300;52.006;5.798;2022-10-16T03:01:38;11.90;94.40
35127;DHT22;21300;52.006;5.798;2022-10-16T03:04:04;11.90;94.40
35127;DHT22;21300;52.006;5.798;2022-10-16T03:06:30;11.90;94.40
35127;DHT22;21300;52.006;5.798;2022-10-16T03:08:55;11.90;94.40
35127;DHT22;21300;52.006;5.798;2022-10-16T03:11:21;11.90;94.40
35127;DHT22;21300;52.006;5.798;2022-10-16T03:13:46;11.90;94.30
35127;DHT22;21300;52.006;5.798;2022-10-16T03:16:12;11.90;94.40
35127;DHT22;21300;52.006;5.798;2022-10-16T03:18:38;11.90;94.40
35127;DHT22;21300;52.006;5.798;2022-10-16T03:21:03;11.90;94.40
35127;DHT22;21300;52.006;5.798;2022-10-16T03:23:29;11.90;94.40
35127;DHT22;21300;52.006;5.798;2022-10-16T03:25:54;11.90;94.40
35127;DHT22;21300;52.006;5.798;2022-10-16T03:28:20;11.90;94.30
35127;DHT22;21300;52.006;5.798;2022-10-16T03:30:46;11.80;94.40
35127;DHT22;21300;52.006;5.798;2022-10-16T03:33:11;11.80;94.30
35127;DHT22;21300;52.006;5.798;2022-10-16T03:35:37;11.80;94.30
35127;DHT22;21300;52.006;5.798;2022-10-16T03:38:03;11.80;94.30
35127;DHT22;21300;52.006;5.798;2022-10-16T03:40:29;11.80;94.30
35127;DHT22;21300;52.006;5.798;2022-10-16T03:42:57;11.80;94.30
35127;DHT22;21300;52.006;5.798;2022-10-16T03:45:23;11.90;94.40
35127;DHT22;21300;52.006;5.798;2022-10-16T03:47:49;11.90;94.40
35127;DHT22;21300;52.006;5.798;2022-10-16T03:50:15;11.80;94.30
35127;DHT22;21300;52.006;5.798;2022-10-16T03:52:40;11.80;94.30
35127;DHT22;21300;52.006;5.798;2022-10-16T03:55:06;11.80;94.30
35127;DHT22;21300;52.006;5.798;2022-10-16T03:57:33;11.80;94.30
35127;DHT22;21300;52.006;5.798;2022-10-16T03:59:58;11.80;94.30
35127;DHT22;21300;52.006;5.798;2022-10-16T04:02:24;11.80;94.30
35127;DHT22;21300;52.006;5.798;2022-10-16T04:04:50;11.80;94.30
35127;DHT22;21300;52.006;5.798;2022-10-16T04:07:15;11.80;94.30
35127;DHT22;21300;52.006;5.798;2022-10-16T04:09:41;11.80;94.30
35127;DHT22;21300;52.006;5.798;2022-10-16T04:12:07;11.80;94.30
35127;DHT22;21300;52.006;5.798;2022-10-16T04:14:33;11.80;94.30
35127;DHT22;21300;52.006;5.798;2022-10-16T04:16:59;11.80;94.30
35127;DHT22;21300;52.006;5.798;2022-10-16T04:19:25;11.80;94.30
35127;DHT22;21300;52.006;5.798;2022-10-16T04:21:50;11.80;94.30
35127;DHT22;21300;52.006;5.798;2022-10-16T04:24:16;11.80;94.40
35127;DHT22;21300;52.006;5.798;2022-10-16T04:26:41;11.80;94.40
35127;DHT22;21300;52.006;5.798;2022-10-16T04:29:07;11.80;94.30
35127;DHT22;21300;52.006;5.798;2022-10-16T04:31:33;11.80;94.30
35127;DHT22;21300;52.006;5.798;2022-10-16T04:33:59;11.80;94.40
35127;DHT22;21300;52.006;5.798;2022-10-16T04:36:24;11.80;94.40
35127;DHT22;21300;52.006;5.798;2022-10-16T04:38:50;11.80;94.30
35127;DHT22;21300;52.006;5.798;2022-10-16T04:41:15;11.80;94.40
35127;DHT22;21300;52.006;5.798;2022-10-16T04:43:41;11.80;94.40
35127;DHT22;21300;52.006;5.798;2022-10-16T04:46:07;11.80;94.30
35127;DHT22;21300;52.006;5.798;2022-10-16T04:48:32;11.80;94.30
35127;DHT22;21300;52.006;5.798;2022-10-16T04:50:59;11.80;94.40
35127;DHT22;21300;52.006;5.798;2022-10-16T04:53:24;11.80;94.30
35127;DHT22;21300;52.006;5.798;2022-10-16T04:55:50;11.80;94.30
35127;DHT22;21300;52.006;5.798;2022-10-16T04:58:16;11.80;94.30
35127;DHT22;21300;52.006;5.798;2022-10-16T05:00:42;11.80;94.30
35127;DHT22;21300;52.006;5.798;2022-10-16T05:03:08;11.80;94.30
35127;DHT22;21300;52.006;5.798;2022-10-16T05:05:35;11.80;94.30
35127;DHT22;21300;52.006;5.798;2022-10-16T05:08:01;11.80;94.30
35127;DHT22;21300;52.006;5.798;2022-10-16T05:10:26;11.80;94.40
35127;DHT22;21300;52.006;5.798;2022-10-16T05:12:52;11.80;94.40
35127;DHT22;21300;52.006;5.798;2022-10-16T05:15:18;11.80;94.40
35127;DHT22;21300;52.006;5.798;2022-10-16T05:17:44;11.80;94.40
35127;DHT22;21300;52.006;5.798;2022-10-16T05:20:10;11.80;94.30
35127;DHT22;21300;52.006;5.798;2022-10-16T05:22:36;11.80;94.30
35127;DHT22;21300;52.006;5.798;2022-10-16T05:25:02;11.80;94.40
35127;DHT22;21300;52.006;5.798;2022-10-16T05:27:27;11.80;94.30
35127;DHT22;21300;52.006;5.798;2022-10-16T05:29:53;11.80;94.30
35127;DHT22;21300;52.006;5.798;2022-10-16T05:32:19;11.70;94.30
35127;DHT22;21300;52.006;5.798;2022-10-16T05:34:45;11.70;94.30
35127;DHT22;21300;52.006;5.798;2022-10-16T05:37:11;11.70;94.40
35127;DHT22;21300;52.006;5.798;2022-10-16T05:39:38;11.70;94.60
35127;DHT22;21300;52.006;5.798;2022-10-16T05:42:04;11.70;94.50
35127;DHT22;21300;52.006;5.798;2022-10-16T05:44:30;11.70;94.50
35127;DHT22;21300;52.006;5.798;2022-10-16T05:46:56;11.70;94.50
35127;DHT22;21300;52.006;5.798;2022-10-16T05:49:21;11.70;94.50
35127;DHT22;21300;52.006;5.798;2022-10-16T05:51:47;11.70;94.40
35127;DHT22;21300;52.006;5.798;2022-10-16T05:54:12;11.70;94.40
35127;DHT22;21300;52.006;5.798;2022-10-16T05:56:38;11.70;94.40
35127;DHT22;21300;52.006;5.798;2022-10-16T05:59:04;11.70;94.40
35127;DHT22;21300;52.006;5.798;2022-10-16T06:01:31;11.70;94.40
35127;DHT22;21300;52.006;5.798;2022-10-16T06:03:57;11.70;94.40
35127;DHT22;21300;52.006;5.798;2022-10-16T06:06:26;11.70;94.40
35127;DHT22;21300;52.006;5.798;2022-10-16T06:08:53;11.70;94.40
35127;DHT22;21300;52.006;5.798;2022-10-16T06:11:21;11.70;94.40
35127;DHT22;21300;52.006;5.798;2022-10-16T06:13:51;11.70;94.40
35127;DHT22;21300;52.006;5.798;2022-10-16T06:16:17;11.70;94.40
35127;DHT22;21300;52.006;5.798;2022-10-16T06:18:43;11.70;94.40
35127;DHT22;21300;52.006;5.798;2022-10-16T06:21:10;11.70;94.40
35127;DHT22;21300;52.006;5.798;2022-10-16T06:23:36;11.70;94.40
35127;DHT22;21300;52.006;5.798;2022-10-16T06:28:31;11.70;94.40
35127;DHT22;21300;52.006;5.798;2022-10-16T06:31:02;11.70;94.40
35127;DHT22;21300;52.006;5.798;2022-10-16T06:33:28;11.60;94.40
35127;DHT22;21300;52.006;5.798;2022-10-16T06:35:53;11.60;94.40
35127;DHT22;21300;52.006;5.798;2022-10-16T06:38:19;11.70;94.50
35127;DHT22;21300;52.006;5.798;2022-10-16T06:40:44;11.70;94.40
35127;DHT22;21300;52.006;5.798;2022-10-16T06:43:10;11.60;94.40
35127;DHT22;21300;52.006;5.798;2022-10-16T06:45:36;11.60;94.40
35127;DHT22;21300;52.006;5.798;2022-10-16T06:48:01;11.60;94.40
35127;DHT22;21300;52.006;5.798;2022-10-16T06:50:27;11.60;94.40
35127;DHT22;21300;52.006;5.798;2022-10-16T06:52:52;11.70;94.40
35127;DHT22;21300;52.006;5.798;2022-10-16T06:55:18;11.60;94.40
35127;DHT22;21300;52.006;5.798;2022-10-16T06:57:44;11.70;94.40
35127;DHT22;21300;52.006;5.798;2022-10-16T07:00:12;11.60;94.40
35127;DHT22;21300;52.006;5.798;2022-10-16T07:02:37;11.60;94.40
35127;DHT22;21300;52.006;5.798;2022-10-16T07:05:03;11.60;94.30
35127;DHT22;21300;52.006;5.798;2022-10-16T07:07:29;11.60;94.30
35127;DHT22;21300;52.006;5.798;2022-10-16T07:09:55;11.70;94.30
35127;DHT22;21300;52.006;5.798;2022-10-16T07:12:20;11.60;94.40
35127;DHT22;21300;52.006;5.798;2022-10-16T07:14:46;11.70;94.40
35127;DHT22;21300;52.006;5.798;2022-10-16T07:17:11;11.70;94.40
35127;DHT22;21300;52.006;5.798;2022-10-16T07:19:37;11.70;94.30
35127;DHT22;21300;52.006;5.798;2022-10-16T07:22:03;11.70;94.30
35127;DHT22;21300;52.006;5.798;2022-10-16T07:24:28;11.70;94.40
35127;DHT22;21300;52.006;5.798;2022-10-16T07:27:13;11.70;94.30
35127;DHT22;21300;52.006;5.798;2022-10-16T07:29:38;11.70;94.30
35127;DHT22;21300;52.006;5.798;2022-10-16T07:32:04;11.70;94.30
35127;DHT22;21300;52.006;5.798;2022-10-16T07:34:30;11.70;94.30
35127;DHT22;21300;52.006;5.798;2022-10-16T07:36:56;11.70;94.30
35127;DHT22;21300;52.006;5.798;2022-10-16T07:39:21;11.70;94.30
35127;DHT22;21300;52.006;5.798;2022-10-16T07:41:47;11.70;94.30
35127;DHT22;21300;52.006;5.798;2022-10-16T07:44:12;11.70;94.40
35127;DHT22;21300;52.006;5.798;2022-10-16T07:46:38;11.70;94.40
35127;DHT22;21300;52.006;5.798;2022-10-16T07:49:04;11.70;94.40
35127;DHT22;21300;52.006;5.798;2022-10-16T07:51:29;11.70;94.40
35127;DHT22;21300;52.006;5.798;2022-10-16T07:53:55;11.70;94.30
35127;DHT22;21300;52.006;5.798;2022-10-16T07:56:21;11.70;94.40
35127;DHT22;21300;52.006;5.798;2022-10-16T07:58:47;11.80;96.40
35127;DHT22;21300;52.006;5.798;2022-10-16T08:01:16;11.80;96.00
35127;DHT22;21300;52.006;5.798;2022-10-16T08:03:46;11.80;95.80
35127;DHT22;21300;52.006;5.798;2022-10-16T08:06:13;11.80;96.10
35127;DHT22;21300;52.006;5.798;2022-10-16T08:08:38;11.90;97.20
35127;DHT22;21300;52.006;5.798;2022-10-16T08:11:04;11.90;97.20
35127;DHT22;21300;52.006;5.798;2022-10-16T08:13:31;12.00;97.80
35127;DHT22;21300;52.006;5.798;2022-10-16T08:15:56;12.00;97.60
35127;DHT22;21300;52.006;5.798;2022-10-16T08:18:22;12.00;97.50
35127;DHT22;21300;52.006;5.798;2022-10-16T08:20:54;11.90;97.10
35127;DHT22;21300;52.006;5.798;2022-10-16T08:23:19;12.00;96.80
35127;DHT22;21300;52.006;5.798;2022-10-16T08:25:45;11.90;96.90
35127;DHT22;21300;52.006;5.798;2022-10-16T08:28:11;11.90;96.70
35127;DHT22;21300;52.006;5.798;2022-10-16T08:30:37;12.00;96.90
35127;DHT22;21300;52.006;5.798;2022-10-16T08:33:03;12.00;96.50
35127;DHT22;21300;52.006;5.798;2022-10-16T08:35:29;12.10;98.00
35127;DHT22;21300;52.006;5.798;2022-10-16T08:37:54;12.10;97.40
35127;DHT22;21300;52.006;5.798;2022-10-16T08:40:23;12.10;97.00
35127;DHT22;21300;52.006;5.798;2022-10-16T08:46:15;12.10;96.60
35127;DHT22;21300;52.006;5.798;2022-10-16T08:48:51;12.10;96.30
35127;DHT22;21300;52.006;5.798;2022-10-16T08:51:35;12.10;96.10
35127;DHT22;21300;52.006;5.798;2022-10-16T08:54:37;12.10;96.10
35127;DHT22;21300;52.006;5.798;2022-10-16T08:56:57;12.10;96.00
35127;DHT22;21300;52.006;5.798;2022-10-16T08:59:26;12.10;95.90
35127;DHT22;21300;52.006;5.798;2022-10-16T09:01:52;12.10;95.90
35127;DHT22;21300;52.006;5.798;2022-10-16T09:07:08;12.20;95.80
35127;DHT22;21300;52.006;5.798;2022-10-16T09:09:58;12.20;95.80
35127;DHT22;21300;52.006;5.798;2022-10-16T09:12:39;12.20;95.80
35127;DHT22;21300;52.006;5.798;2022-10-16T09:15:29;12.20;95.70
35127;DHT22;21300;52.006;5.798;2022-10-16T09:20:50;12.30;95.60
35127;DHT22;21300;52.006;5.798;2022-10-16T09:23:28;12.30;95.60
35127;DHT22;21300;52.006;5.798;2022-10-16T09:25:55;12.30;95.60
35127;DHT22;21300;52.006;5.798;2022-10-16T09:28:22;12.30;95.60
35127;DHT22;21300;52.006;5.798;2022-10-16T09:30:48;12.30;95.60
35127;DHT22;21300;52.006;5.798;2022-10-16T09:33:16;12.40;95.60
35127;DHT22;21300;52.006;5.798;2022-10-16T09:35:48;12.40;95.60
35127;DHT22;21300;52.006;5.798;2022-10-16T09:40:55;12.50;95.60
35127;DHT22;21300;52.006;5.798;2022-10-16T09:43:35;12.50;95.70
35127;DHT22;21300;52.006;5.798;2022-10-16T09:46:07;12.60;95.80
35127;DHT22;21300;52.006;5.798;2022-10-16T09:48:42;12.60;95.70
35127;DHT22;21300;52.006;5.798;2022-10-16T09:51:34;12.60;95.70
35127;DHT22;21300;52.006;5.798;2022-10-16T09:54:14;12.60;95.60
35127;DHT22;21300;52.006;5.798;2022-10-16T09:57:10;12.70;95.60
35127;DHT22;21300;52.006;5.798;2022-10-16T09:59:47;12.70;95.70
35127;DHT22;21300;52.006;5.798;2022-10-16T10:02:14;12.70;95.80
35127;DHT22;21300;52.006;5.798;2022-10-16T10:04:49;12.80;95.80
35127;DHT22;21300;52.006;5.798;2022-10-16T10:07:24;12.80;95.70
35127;DHT22;21300;52.006;5.798;2022-10-16T10:09:51;12.80;95.80
35127;DHT22;21300;52.006;5.798;2022-10-16T10:12:27;12.90;95.80
35127;DHT22;21300;52.006;5.798;2022-10-16T10:14:56;12.90;95.80
35127;DHT22;21300;52.006;5.798;2022-10-16T10:17:25;12.90;95.90
35127;DHT22;21300;52.006;5.798;2022-10-16T10:19:59;13.00;96.20
35127;DHT22;21300;52.006;5.798;2022-10-16T10:25:00;13.10;95.90
35127;DHT22;21300;52.006;5.798;2022-10-16T10:30:42;13.10;95.80
35127;DHT22;21300;52.006;5.798;2022-10-16T10:36:03;13.20;95.80
35127;DHT22;21300;52.006;5.798;2022-10-16T10:38:50;13.30;95.90
35127;DHT22;21300;52.006;5.798;2022-10-16T10:44:14;13.30;95.80
35127;DHT22;21300;52.006;5.798;2022-10-16T10:47:10;13.40;95.90
35127;DHT22;21300;52.006;5.798;2022-10-16T11:06:26;13.60;95.80
35127;DHT22;21300;52.006;5.798;2022-10-16T11:08:59;13.70;95.70
35127;DHT22;21300;52.006;5.798;2022-10-16T11:14:00;13.80;95.50
35127;DHT22;21300;52.006;5.798;2022-10-16T11:16:34;13.80;95.60
35127;DHT22;21300;52.006;5.798;2022-10-16T11:19:28;13.90;94.50
35127;DHT22;21300;52.006;5.798;2022-10-16T11:22:38;14.00;94.50
35127;DHT22;21300;52.006;5.798;2022-10-16T11:30:25;14.20;95.20
35127;DHT22;21300;52.006;5.798;2022-10-16T11:41:41;14.80;92.60
35127;DHT22;21300;52.006;5.798;2022-10-16T11:50:10;14.70;93.70
35127;DHT22;21300;52.006;5.798;2022-10-16T11:52:51;14.70;93.90
35127;DHT22;21300;52.006;5.798;2022-10-16T11:55:21;14.70;94.00
35127;DHT22;21300;52.006;5.798;2022-10-16T11:58:01;14.70;94.10
35127;DHT22;21300;52.006;5.798;2022-10-16T12:00:40;14.70;94.20
35127;DHT22;21300;52.006;5.798;2022-10-16T12:08:39;14.80;94.20
35127;DHT22;21300;52.006;5.798;2022-10-16T12:16:58;14.90;94.40
35127;DHT22;21300;52.006;5.798;2022-10-16T12:19:30;14.90;94.40
35127;DHT22;21300;52.006;5.798;2022-10-16T12:22:01;14.90;94.40
35127;DHT22;21300;52.006;5.798;2022-10-16T12:24:36;15.00;94.40
35127;DHT22;21300;52.006;5.798;2022-10-16T12:27:05;15.00;94.40
35127;DHT22;21300;52.006;5.798;2022-10-16T12:29:37;15.00;94.40
35127;DHT22;21300;52.006;5.798;2022-10-16T12:34:48;15.60;90.30
35127;DHT22;21300;52.006;5.798;2022-10-16T12:37:26;15.80;88.40
35127;DHT22;21300;52.006;5.798;2022-10-16T12:39:54;15.80;88.30
35127;DHT22;21300;52.006;5.798;2022-10-16T12:44:51;15.70;90.70
35127;DHT22;21300;52.006;5.798;2022-10-16T12:47:36;15.70;89.30
35127;DHT22;21300;52.006;5.798;2022-10-16T12:50:03;15.70;90.50
35127;DHT22;21300;52.006;5.798;2022-10-16T12:52:39;15.70;91.00
35127;DHT22;21300;52.006;5.798;2022-10-16T12:55:12;15.70;91.40
35127;DHT22;21300;52.006;5.798;2022-10-16T13:00:35;15.70;91.80
35127;DHT22;21300;52.006;5.798;2022-10-16T13:17:31;15.70;92.50
35127;DHT22;21300;52.006;5.798;2022-10-16T13:20:15;15.70;92.60
35127;DHT22;21300;52.006;5.798;2022-10-16T13:25:27;15.70;92.70
35127;DHT22;21300;52.006;5.798;2022-10-16T13:28:02;15.70;92.70
35127;DHT22;21300;52.006;5.798;2022-10-16T13:30:30;15.80;91.00
35127;DHT22;21300;52.006;5.798;2022-10-16T13:33:06;15.90;90.10
35127;DHT22;21300;52.006;5.798;2022-10-16T13:35:34;15.90;90.70
35127;DHT22;21300;52.006;5.798;2022-10-16T13:40:30;15.90;91.30
35127;DHT22;21300;52.006;5.798;2022-10-16T13:42:55;15.90;91.50
35127;DHT22;21300;52.006;5.798;2022-10-16T13:45:23;15.90;91.50
35127;DHT22;21300;52.006;5.798;2022-10-16T13:48:00;15.90;91.80
35127;DHT22;21300;52.006;5.798;2022-10-16T13:50:26;15.90;91.90
35127;DHT22;21300;52.006;5.798;2022-10-16T13:52:52;15.90;92.00
35127;DHT22;21300;52.006;5.798;2022-10-16T13:55:28;15.90;91.20
35127;DHT22;21300;52.006;5.798;2022-10-16T13:58:07;16.00;90.40
35127;DHT22;21300;52.006;5.798;2022-10-16T14:00:34;16.00;90.10
35127;DHT22;21300;52.006;5.798;2022-10-16T14:03:05;16.00;90.80
35127;DHT22;21300;52.006;5.798;2022-10-16T14:05:32;16.00;90.60
35127;DHT22;21300;52.006;5.798;2022-10-16T14:07:58;16.00;90.30
35127;DHT22;21300;52.006;5.798;2022-10-16T14:10:29;16.00;90.60
35127;DHT22;21300;52.006;5.798;2022-10-16T14:13:06;16.00;90.30
35127;DHT22;21300;52.006;5.798;2022-10-16T14:15:35;16.00;90.00
35127;DHT22;21300;52.006;5.798;2022-10-16T14:18:02;16.10;89.60
35127;DHT22;21300;52.006;5.798;2022-10-16T14:20:33;16.10;90.00
35127;DHT22;21300;52.006;5.798;2022-10-16T14:23:17;16.00;90.20
35127;DHT22;21300;52.006;5.798;2022-10-16T14:25:45;16.00;90.30
35127;DHT22;21300;52.006;5.798;2022-10-16T14:28:21;16.00;89.70
35127;DHT22;21300;52.006;5.798;2022-10-16T14:30:57;16.00;89.60
35127;DHT22;21300;52.006;5.798;2022-10-16T14:36:18;16.00;90.10
35127;DHT22;21300;52.006;5.798;2022-10-16T14:43:57;16.10;89.60
35127;DHT22;21300;52.006;5.798;2022-10-16T14:46:36;16.10;90.30
35127;DHT22;21300;52.006;5.798;2022-10-16T14:51:34;16.10;90.30
35127;DHT22;21300;52.006;5.798;2022-10-16T14:54:00;16.00;90.60
35127;DHT22;21300;52.006;5.798;2022-10-16T14:56:34;16.10;90.50
35127;DHT22;21300;52.006;5.798;2022-10-16T14:59:13;16.00;90.70
35127;DHT22;21300;52.006;5.798;2022-10-16T15:01:39;16.00;87.70
35127;DHT22;21300;52.006;5.798;2022-10-16T15:04:08;16.00;89.20
35127;DHT22;21300;52.006;5.798;2022-10-16T15:06:35;16.10;90.20
35127;DHT22;21300;52.006;5.798;2022-10-16T15:09:19;16.00;90.40
35127;DHT22;21300;52.006;5.798;2022-10-16T15:11:45;16.00;90.10
35127;DHT22;21300;52.006;5.798;2022-10-16T15:14:12;16.00;90.50
35127;DHT22;21300;52.006;5.798;2022-10-16T15:16:39;16.00;90.50
35127;DHT22;21300;52.006;5.798;2022-10-16T15:19:04;16.10;90.70
35127;DHT22;21300;52.006;5.798;2022-10-16T15:21:32;16.00;90.80
35127;DHT22;21300;52.006;5.798;2022-10-16T15:23:59;16.00;91.00
35127;DHT22;21300;52.006;5.798;2022-10-16T15:26:26;16.00;91.20
35127;DHT22;21300;52.006;5.798;2022-10-16T15:28:52;16.00;91.40
35127;DHT22;21300;52.006;5.798;2022-10-16T15:31:18;16.00;91.60
35127;DHT22;21300;52.006;5.798;2022-10-16T15:33:44;16.00;91.70
35127;DHT22;21300;52.006;5.798;2022-10-16T15:36:13;16.00;91.80
35127;DHT22;21300;52.006;5.798;2022-10-16T15:38:38;16.00;91.90
35127;DHT22;21300;52.006;5.798;2022-10-16T15:41:04;16.00;91.90
35127;DHT22;21300;52.006;5.798;2022-10-16T15:43:30;16.00;92.00
35127;DHT22;21300;52.006;5.798;2022-10-16T15:48:27;16.00;92.10
35127;DHT22;21300;52.006;5.798;2022-10-16T15:50:53;16.00;92.10
35127;DHT22;21300;52.006;5.798;2022-10-16T15:53:18;16.00;92.20
35127;DHT22;21300;52.006;5.798;2022-10-16T15:55:44;16.00;92.30
35127;DHT22;21300;52.006;5.798;2022-10-16T15:58:09;16.00;91.80
35127;DHT22;21300;52.006;5.798;2022-10-16T16:00:35;15.90;91.80
35127;DHT22;21300;52.006;5.798;2022-10-16T16:03:01;15.90;92.20
35127;DHT22;21300;52.006;5.798;2022-10-16T16:05:27;15.90;92.20
35127;DHT22;21300;52.006;5.798;2022-10-16T16:07:53;15.80;92.40
35127;DHT22;21300;52.006;5.798;2022-10-16T16:10:19;15.80;92.30
35127;DHT22;21300;52.006;5.798;2022-10-16T16:12:49;15.80;92.40
35127;DHT22;21300;52.006;5.798;2022-10-16T16:15:21;15.70;92.50
35127;DHT22;21300;52.006;5.798;2022-10-16T16:17:47;15.70;92.70
35127;DHT22;21300;52.006;5.798;2022-10-16T16:20:13;15.60;92.90
35127;DHT22;21300;52.006;5.798;2022-10-16T16:22:38;15.60;93.10
35127;DHT22;21300;52.006;5.798;2022-10-16T16:25:04;15.60;93.10
35127;DHT22;21300;52.006;5.798;2022-10-16T16:27:30;15.60;93.20
35127;DHT22;21300;52.006;5.798;2022-10-16T16:29:59;15.50;93.30
35127;DHT22;21300;52.006;5.798;2022-10-16T16:32:25;15.60;93.20
35127;DHT22;21300;52.006;5.798;2022-10-16T16:34:50;15.60;93.10
35127;DHT22;21300;52.006;5.798;2022-10-16T16:37:16;15.60;92.90
35127;DHT22;21300;52.006;5.798;2022-10-16T16:39:42;15.70;92.90
35127;DHT22;21300;52.006;5.798;2022-10-16T16:42:08;15.70;92.90
35127;DHT22;21300;52.006;5.798;2022-10-16T16:44:35;15.70;92.90
35127;DHT22;21300;52.006;5.798;2022-10-16T16:47:02;15.70;92.90
35127;DHT22;21300;52.006;5.798;2022-10-16T16:49:28;15.70;92.90
35127;DHT22;21300;52.006;5.798;2022-10-16T16:51:54;15.70;92.90
35127;DHT22;21300;52.006;5.798;2022-10-16T16:54:19;15.70;92.90
35127;DHT22;21300;52.006;5.798;2022-10-16T16:56:45;15.70;92.90
35127;DHT22;21300;52.006;5.798;2022-10-16T16:59:16;15.70;92.90
35127;DHT22;21300;52.006;5.798;2022-10-16T17:01:43;15.70;93.00
35127;DHT22;21300;52.006;5.798;2022-10-16T17:04:09;15.60;92.90
35127;DHT22;21300;52.006;5.798;2022-10-16T17:06:36;15.60;92.90
35127;DHT22;21300;52.006;5.798;2022-10-16T17:09:03;15.60;92.90
35127;DHT22;21300;52.006;5.798;2022-10-16T17:11:30;15.60;92.90
35127;DHT22;21300;52.006;5.798;2022-10-16T17:13:57;15.60;92.90
35127;DHT22;21300;52.006;5.798;2022-10-16T17:16:26;15.60;92.90
35127;DHT22;21300;52.006;5.798;2022-10-16T17:18:52;15.60;92.90
35127;DHT22;21300;52.006;5.798;2022-10-16T17:21:18;15.60;92.90
35127;DHT22;21300;52.006;5.798;2022-10-16T17:23:44;15.60;92.90
35127;DHT22;21300;52.006;5.798;2022-10-16T17:26:15;15.60;92.90
35127;DHT22;21300;52.006;5.798;2022-10-16T17:28:42;15.60;93.00
35127;DHT22;21300;52.006;5.798;2022-10-16T17:31:14;15.50;92.90
35127;DHT22;21300;52.006;5.798;2022-10-16T17:33:41;15.50;92.90
35127;DHT22;21300;52.006;5.798;2022-10-16T17:36:07;15.50;92.90
35127;DHT22;21300;52.006;5.798;2022-10-16T17:38:33;15.50;92.90
35127;DHT22;21300;52.006;5.798;2022-10-16T17:41:10;15.50;92.90
35127;DHT22;21300;52.006;5.798;2022-10-16T17:43:37;15.50;92.80
35127;DHT22;21300;52.006;5.798;2022-10-16T17:46:04;15.50;92.90
35127;DHT22;21300;52.006;5.798;2022-10-16T17:48:29;15.50;92.80
35127;DHT22;21300;52.006;5.798;2022-10-16T17:50:55;15.50;92.90
35127;DHT22;21300;52.006;5.798;2022-10-16T17:53:21;15.50;92.90
35127;DHT22;21300;52.006;5.798;2022-10-16T17:55:46;15.40;92.90